sensor_id;sensor_type;location;lat;lon;timestamp;temperature;humidity
17827;DHT22;9038;48.208;16.308;2023-01-24T00:00:10;5.90;77.70
17827;DHT22;9038;48.208;16.308;2023-01-24T00:02:12;5.90;77.90
17827;DHT22;9038;48.208;16.308;2023-01-24T00:04:14;5.90;77.70
17827;DHT22;9038;48.208;16.308;2023-01-24T00:06:16;5.90;77.50
17827;DHT22;9038;48.208;16.308;2023-01-24T00:08:21;5.90;77.50
17827;DHT22;9038;48.208;16.308;2023-01-24T00:10:24;5.80;77.60
17827;DHT22;9038;48.208;16.308;2023-01-24T00:12:28;5.80;77.60
17827;DHT22;9038;48.208;16.308;2023-01-24T00:14:30;5.80;77.60
17827;DHT22;9038;48.208;16.308;2023-01-24T00:16:32;5.80;77.40
17827;DHT22;9038;48.208;16.308;2023-01-24T00:18:34;5.80;77.50
17827;DHT22;9038;48.208;16.308;2023-01-24T00:20:36;5.80;77.60
17827;DHT22;9038;48.208;16.308;2023-01-24T00:22:38;5.80;77.90
17827;DHT22;9038;48.208;16.308;2023-01-24T00:24:40;5.70;77.60
17827;DHT22;9038;48.208;16.308;2023-01-24T00:26:42;5.70;78.00
17827;DHT22;9038;48.208;16.308;2023-01-24T00:28:46;5.70;78.00
17827;DHT22;9038;48.208;16.308;2023-01-24T00:30:48;5.80;78.00
17827;DHT22;9038;48.208;16.308;2023-01-24T00:32:50;5.80;78.00
17827;DHT22;9038;48.208;16.308;2023-01-24T00:34:52;5.80;77.80
17827;DHT22;9038;48.208;16.308;2023-01-24T00:36:54;5.70;77.70
17827;DHT22;9038;48.208;16.308;2023-01-24T00:38:56;5.70;78.10
17827;DHT22;9038;48.208;16.308;2023-01-24T00:40:58;5.60;78.00
17827;DHT22;9038;48.208;16.308;2023-01-24T00:43:01;5.60;78.10
17827;DHT22;9038;48.208;16.308;2023-01-24T00:45:05;5.60;78.20
17827;DHT22;9038;48.208;16.308;2023-01-24T00:47:07;5.60;78.40
17827;DHT22;9038;48.208;16.308;2023-01-24T00:49:09;5.70;78.20
17827;DHT22;9038;48.208;16.308;2023-01-24T00:51:11;5.70;78.20
17827;DHT22;9038;48.208;16.308;2023-01-24T00:53:13;5.70;78.00
17827;DHT22;9038;48.208;16.308;2023-01-24T00:55:15;5.70;77.90
17827;DHT22;9038;48.208;16.308;2023-01-24T00:57:17;5.70;78.10
17827;DHT22;9038;48.208;16.308;2023-01-24T00:59:19;5.70;78.00
17827;DHT22;9038;48.208;16.308;2023-01-24T01:01:22;5.70;77.90
17827;DHT22;9038;48.208;16.308;2023-01-24T01:03:24;5.70;77.90
17827;DHT22;9038;48.208;16.308;2023-01-24T01:05:26;5.80;78.10
17827;DHT22;9038;48.208;16.308;2023-01-24T01:07:28;5.80;77.90
17827;DHT22;9038;48.208;16.308;2023-01-24T01:09:30;5.80;77.60
17827;DHT22;9038;48.208;16.308;2023-01-24T01:11:32;5.70;77.40
17827;DHT22;9038;48.208;16.308;2023-01-24T01:13:35;5.70;77.70
17827;DHT22;9038;48.208;16.308;2023-01-24T01:15:39;5.70;77.90
17827;DHT22;9038;48.208;16.308;2023-01-24T01:17:42;5.70;77.80
17827;DHT22;9038;48.208;16.308;2023-01-24T01:19:44;5.70;77.50
17827;DHT22;9038;48.208;16.308;2023-01-24T01:21:46;5.70;77.50
17827;DHT22;9038;48.208;16.308;2023-01-24T01:23:50;5.70;77.50
17827;DHT22;9038;48.208;16.308;2023-01-24T01:25:52;5.70;77.50
17827;DHT22;9038;48.208;16.308;2023-01-24T01:27:54;5.70;77.50
17827;DHT22;9038;48.208;16.308;2023-01-24T01:29:56;5.70;77.50
17827;DHT22;9038;48.208;16.308;2023-01-24T01:31:58;5.60;77.60
17827;DHT22;9038;48.208;16.308;2023-01-24T01:34:01;5.60;77.60
17827;DHT22;9038;48.208;16.308;2023-01-24T01:36:06;5.60;77.60
17827;DHT22;9038;48.208;16.308;2023-01-24T01:38:08;5.60;77.70
17827;DHT22;9038;48.208;16.308;2023-01-24T01:40:10;5.60;77.90
17827;DHT22;9038;48.208;16.308;2023-01-24T01:42:12;5.60;78.00
17827;DHT22;9038;48.208;16.308;2023-01-24T01:44:17;5.60;78.10
17827;DHT22;9038;48.208;16.308;2023-01-24T01:46:41;5.60;78.00
17827;DHT22;9038;48.208;16.308;2023-01-24T01:48:47;5.60;78.00
17827;DHT22;9038;48.208;16.308;2023-01-24T01:50:58;5.60;78.00
17827;DHT22;9038;48.208;16.308;2023-01-24T01:53:01;5.60;77.90
17827;DHT22;9038;48.208;16.308;2023-01-24T01:55:07;5.60;77.80
17827;DHT22;9038;48.208;16.308;2023-01-24T01:57:13;5.60;77.80
17827;DHT22;9038;48.208;16.308;2023-01-24T01:59:19;5.60;77.80
17827;DHT22;9038;48.208;16.308;2023-01-24T02:01:22;5.50;77.80
17827;DHT22;9038;48.208;16.308;2023-01-24T02:03:31;5.60;78.00
17827;DHT22;9038;48.208;16.308;2023-01-24T02:05:40;5.60;78.00
17827;DHT22;9038;48.208;16.308;2023-01-24T02:07:47;5.60;77.70
17827;DHT22;9038;48.208;16.308;2023-01-24T02:09:52;5.60;77.90
17827;DHT22;9038;48.208;16.308;2023-01-24T02:11:59;5.60;77.60
17827;DHT22;9038;48.208;16.308;2023-01-24T02:14:00;5.60;77.50
17827;DHT22;9038;48.208;16.308;2023-01-24T02:16:20;5.60;77.70
17827;DHT22;9038;48.208;16.308;2023-01-24T02:18:22;5.60;77.70
17827;DHT22;9038;48.208;16.308;2023-01-24T02:20:35;5.70;77.50
17827;DHT22;9038;48.208;16.308;2023-01-24T02:22:46;5.70;77.50
17827;DHT22;9038;48.208;16.308;2023-01-24T02:25:01;5.60;77.20
17827;DHT22;9038;48.208;16.308;2023-01-24T02:27:06;5.60;77.40
17827;DHT22;9038;48.208;16.308;2023-01-24T02:29:10;5.50;78.00
17827;DHT22;9038;48.208;16.308;2023-01-24T02:31:13;5.50;77.90
17827;DHT22;9038;48.208;16.308;2023-01-24T02:33:18;5.50;77.90
17827;DHT22;9038;48.208;16.308;2023-01-24T02:35:25;5.50;77.90
17827;DHT22;9038;48.208;16.308;2023-01-24T02:37:30;5.50;77.90
17827;DHT22;9038;48.208;16.308;2023-01-24T02:39:43;5.50;77.60
17827;DHT22;9038;48.208;16.308;2023-01-24T02:41:47;5.50;77.80
17827;DHT22;9038;48.208;16.308;2023-01-24T02:43:53;5.50;77.80
17827;DHT22;9038;48.208;16.308;2023-01-24T02:45:56;5.50;78.00
17827;DHT22;9038;48.208;16.308;2023-01-24T02:47:58;5.50;77.90
17827;DHT22;9038;48.208;16.308;2023-01-24T02:50:00;5.60;77.90
17827;DHT22;9038;48.208;16.308;2023-01-24T02:52:03;5.60;77.90
17827;DHT22;9038;48.208;16.308;2023-01-24T02:54:22;5.70;77.70
17827;DHT22;9038;48.208;16.308;2023-01-24T02:56:25;5.70;77.30
17827;DHT22;9038;48.208;16.308;2023-01-24T02:58:44;5.70;77.20
17827;DHT22;9038;48.208;16.308;2023-01-24T03:00:47;5.60;77.10
17827;DHT22;9038;48.208;16.308;2023-01-24T03:02:49;5.60;77.10
17827;DHT22;9038;48.208;16.308;2023-01-24T03:04:51;5.60;77.40
17827;DHT22;9038;48.208;16.308;2023-01-24T03:06:53;5.60;77.40
17827;DHT22;9038;48.208;16.308;2023-01-24T03:08:55;5.50;77.50
17827;DHT22;9038;48.208;16.308;2023-01-24T03:10:57;5.60;77.60
17827;DHT22;9038;48.208;16.308;2023-01-24T03:12:58;5.60;77.50
17827;DHT22;9038;48.208;16.308;2023-01-24T03:15:17;5.60;77.40
17827;DHT22;9038;48.208;16.308;2023-01-24T03:17:38;5.60;77.40
17827;DHT22;9038;48.208;16.308;2023-01-24T03:19:57;5.50;77.60
17827;DHT22;9038;48.208;16.308;2023-01-24T03:22:16;5.50;77.50
17827;DHT22;9038;48.208;16.308;2023-01-24T03:24:35;5.50;77.50
17827;DHT22;9038;48.208;16.308;2023-01-24T03:26:55;5.40;77.60
17827;DHT22;9038;48.208;16.308;2023-01-24T03:29:14;5.40;77.90
17827;DHT22;9038;48.208;16.308;2023-01-24T03:31:34;5.50;77.70
17827;DHT22;9038;48.208;16.308;2023-01-24T03:34:02;5.40;77.90
17827;DHT22;9038;48.208;16.308;2023-01-24T03:36:22;5.50;78.00
17827;DHT22;9038;48.208;16.308;2023-01-24T03:38:32;5.50;77.90
17827;DHT22;9038;48.208;16.308;2023-01-24T03:40:51;5.50;77.70
17827;DHT22;9038;48.208;16.308;2023-01-24T03:42:53;5.50;77.40
17827;DHT22;9038;48.208;16.308;2023-01-24T03:44:55;5.40;77.40
17827;DHT22;9038;48.208;16.308;2023-01-24T03:46:57;5.50;77.80
17827;DHT22;9038;48.208;16.308;2023-01-24T03:49:01;5.50;77.90
17827;DHT22;9038;48.208;16.308;2023-01-24T03:51:03;5.50;77.70
17827;DHT22;9038;48.208;16.308;2023-01-24T03:53:26;5.40;77.80
17827;DHT22;9038;48.208;16.308;2023-01-24T03:55:27;5.50;77.90
17827;DHT22;9038;48.208;16.308;2023-01-24T03:57:29;5.50;77.90
17827;DHT22;9038;48.208;16.308;2023-01-24T03:59:31;5.50;77.70
17827;DHT22;9038;48.208;16.308;2023-01-24T04:01:33;5.50;77.80
17827;DHT22;9038;48.208;16.308;2023-01-24T04:03:35;5.50;77.90
17827;DHT22;9038;48.208;16.308;2023-01-24T04:05:38;5.50;77.90
17827;DHT22;9038;48.208;16.308;2023-01-24T04:07:40;5.30;77.80
17827;DHT22;9038;48.208;16.308;2023-01-24T04:09:42;5.40;78.20
17827;DHT22;9038;48.208;16.308;2023-01-24T04:11:44;5.30;78.10
17827;DHT22;9038;48.208;16.308;2023-01-24T04:13:46;5.30;78.10
17827;DHT22;9038;48.208;16.308;2023-01-24T04:15:48;5.30;78.30
17827;DHT22;9038;48.208;16.308;2023-01-24T04:17:50;5.30;78.20
17827;DHT22;9038;48.208;16.308;2023-01-24T04:19:51;5.30;78.10
17827;DHT22;9038;48.208;16.308;2023-01-24T04:21:57;5.40;78.20
17827;DHT22;9038;48.208;16.308;2023-01-24T04:23:59;5.40;78.30
17827;DHT22;9038;48.208;16.308;2023-01-24T04:26:01;5.40;78.20
17827;DHT22;9038;48.208;16.308;2023-01-24T04:28:04;5.30;78.20
17827;DHT22;9038;48.208;16.308;2023-01-24T04:30:10;5.30;78.10
17827;DHT22;9038;48.208;16.308;2023-01-24T04:32:13;5.30;78.10
17827;DHT22;9038;48.208;16.308;2023-01-24T04:34:15;5.30;78.20
17827;DHT22;9038;48.208;16.308;2023-01-24T04:36:17;5.30;78.10
17827;DHT22;9038;48.208;16.308;2023-01-24T04:38:20;5.30;78.10
17827;DHT22;9038;48.208;16.308;2023-01-24T04:40:22;5.30;78.40
17827;DHT22;9038;48.208;16.308;2023-01-24T04:42:24;5.20;78.30
17827;DHT22;9038;48.208;16.308;2023-01-24T04:44:26;5.30;78.70
17827;DHT22;9038;48.208;16.308;2023-01-24T04:46:28;5.20;78.50
17827;DHT22;9038;48.208;16.308;2023-01-24T04:48:30;5.30;78.40
17827;DHT22;9038;48.208;16.308;2023-01-24T04:50:32;5.20;78.40
17827;DHT22;9038;48.208;16.308;2023-01-24T04:52:34;5.20;78.40
17827;DHT22;9038;48.208;16.308;2023-01-24T04:54:38;5.20;78.30
17827;DHT22;9038;48.208;16.308;2023-01-24T04:56:39;5.20;78.40
17827;DHT22;9038;48.208;16.308;2023-01-24T04:58:41;5.20;78.50
17827;DHT22;9038;48.208;16.308;2023-01-24T05:00:43;5.30;78.60
17827;DHT22;9038;48.208;16.308;2023-01-24T05:02:45;5.30;78.30
17827;DHT22;9038;48.208;16.308;2023-01-24T05:04:48;5.40;78.30
17827;DHT22;9038;48.208;16.308;2023-01-24T05:06:50;5.40;78.20
17827;DHT22;9038;48.208;16.308;2023-01-24T05:08:52;5.30;77.90
17827;DHT22;9038;48.208;16.308;2023-01-24T05:10:55;5.40;78.10
17827;DHT22;9038;48.208;16.308;2023-01-24T05:12:57;5.40;78.20
17827;DHT22;9038;48.208;16.308;2023-01-24T05:14:59;5.40;78.20
17827;DHT22;9038;48.208;16.308;2023-01-24T05:17:01;5.30;78.20
17827;DHT22;9038;48.208;16.308;2023-01-24T05:19:03;5.40;78.30
17827;DHT22;9038;48.208;16.308;2023-01-24T05:21:05;5.40;79.00
17827;DHT22;9038;48.208;16.308;2023-01-24T05:23:07;5.40;78.20
17827;DHT22;9038;48.208;16.308;2023-01-24T05:25:09;5.40;78.10
17827;DHT22;9038;48.208;16.308;2023-01-24T05:27:13;5.30;78.20
17827;DHT22;9038;48.208;16.308;2023-01-24T05:29:15;5.20;78.00
17827;DHT22;9038;48.208;16.308;2023-01-24T05:31:17;5.20;78.50
17827;DHT22;9038;48.208;16.308;2023-01-24T05:33:20;5.20;78.70
17827;DHT22;9038;48.208;16.308;2023-01-24T05:35:21;5.30;78.60
17827;DHT22;9038;48.208;16.308;2023-01-24T05:37:24;5.30;78.30
17827;DHT22;9038;48.208;16.308;2023-01-24T05:39:26;5.40;78.50
17827;DHT22;9038;48.208;16.308;2023-01-24T05:41:28;5.40;78.30
17827;DHT22;9038;48.208;16.308;2023-01-24T05:43:31;5.40;78.20
17827;DHT22;9038;48.208;16.308;2023-01-24T05:45:34;5.40;78.20
17827;DHT22;9038;48.208;16.308;2023-01-24T05:47:36;5.50;78.20
17827;DHT22;9038;48.208;16.308;2023-01-24T05:49:38;5.50;77.90
17827;DHT22;9038;48.208;16.308;2023-01-24T05:51:40;5.50;77.90
17827;DHT22;9038;48.208;16.308;2023-01-24T05:53:42;5.50;77.70
17827;DHT22;9038;48.208;16.308;2023-01-24T05:55:44;5.50;77.90
17827;DHT22;9038;48.208;16.308;2023-01-24T05:57:46;5.50;77.60
17827;DHT22;9038;48.208;16.308;2023-01-24T05:59:50;5.50;77.70
17827;DHT22;9038;48.208;16.308;2023-01-24T06:01:51;5.50;77.80
17827;DHT22;9038;48.208;16.308;2023-01-24T06:03:54;5.40;77.80
17827;DHT22;9038;48.208;16.308;2023-01-24T06:05:56;5.40;78.00
17827;DHT22;9038;48.208;16.308;2023-01-24T06:07:58;5.40;78.30
17827;DHT22;9038;48.208;16.308;2023-01-24T06:10:00;5.50;78.00
17827;DHT22;9038;48.208;16.308;2023-01-24T06:12:02;5.40;77.80
17827;DHT22;9038;48.208;16.308;2023-01-24T06:14:04;5.40;78.00
17827;DHT22;9038;48.208;16.308;2023-01-24T06:16:10;5.40;78.20
17827;DHT22;9038;48.208;16.308;2023-01-24T06:18:14;5.40;78.20
17827;DHT22;9038;48.208;16.308;2023-01-24T06:20:17;5.40;78.00
17827;DHT22;9038;48.208;16.308;2023-01-24T06:22:24;5.40;78.20
17827;DHT22;9038;48.208;16.308;2023-01-24T06:24:29;5.40;78.20
17827;DHT22;9038;48.208;16.308;2023-01-24T06:26:32;5.50;78.10
17827;DHT22;9038;48.208;16.308;2023-01-24T06:28:34;5.40;78.10
17827;DHT22;9038;48.208;16.308;2023-01-24T06:30:37;5.40;78.20
17827;DHT22;9038;48.208;16.308;2023-01-24T06:32:58;5.40;78.20
17827;DHT22;9038;48.208;16.308;2023-01-24T06:35:17;5.40;78.30
17827;DHT22;9038;48.208;16.308;2023-01-24T06:37:28;5.40;78.30
17827;DHT22;9038;48.208;16.308;2023-01-24T06:39:33;5.30;78.30
17827;DHT22;9038;48.208;16.308;2023-01-24T06:41:37;5.40;78.30
17827;DHT22;9038;48.208;16.308;2023-01-24T06:43:39;5.30;78.50
17827;DHT22;9038;48.208;16.308;2023-01-24T06:45:41;5.30;78.60
17827;DHT22;9038;48.208;16.308;2023-01-24T06:47:45;5.30;78.50
17827;DHT22;9038;48.208;16.308;2023-01-24T06:49:46;5.30;78.60
17827;DHT22;9038;48.208;16.308;2023-01-24T06:51:49;5.30;78.60
17827;DHT22;9038;48.208;16.308;2023-01-24T06:53:52;5.40;78.80
17827;DHT22;9038;48.208;16.308;2023-01-24T06:55:54;5.40;78.50
17827;DHT22;9038;48.208;16.308;2023-01-24T06:57:58;5.40;78.30
17827;DHT22;9038;48.208;16.308;2023-01-24T07:00:04;5.30;78.20
17827;DHT22;9038;48.208;16.308;2023-01-24T07:02:06;5.40;78.80
17827;DHT22;9038;48.208;16.308;2023-01-24T07:04:12;5.40;78.30
17827;DHT22;9038;48.208;16.308;2023-01-24T07:06:14;5.30;78.40
17827;DHT22;9038;48.208;16.308;2023-01-24T07:08:20;5.40;78.90
17827;DHT22;9038;48.208;16.308;2023-01-24T07:10:22;5.40;78.60
17827;DHT22;9038;48.208;16.308;2023-01-24T07:12:24;5.40;78.50
17827;DHT22;9038;48.208;16.308;2023-01-24T07:14:26;5.40;78.30
17827;DHT22;9038;48.208;16.308;2023-01-24T07:16:28;5.40;78.20
17827;DHT22;9038;48.208;16.308;2023-01-24T07:18:30;5.40;78.30
17827;DHT22;9038;48.208;16.308;2023-01-24T07:20:34;5.50;78.40
17827;DHT22;9038;48.208;16.308;2023-01-24T07:22:37;5.40;78.00
17827;DHT22;9038;48.208;16.308;2023-01-24T07:24:40;5.50;78.30
17827;DHT22;9038;48.208;16.308;2023-01-24T07:26:44;5.50;78.40
17827;DHT22;9038;48.208;16.308;2023-01-24T07:28:46;5.50;78.40
17827;DHT22;9038;48.208;16.308;2023-01-24T07:30:48;5.60;78.20
17827;DHT22;9038;48.208;16.308;2023-01-24T07:32:50;5.60;78.00
17827;DHT22;9038;48.208;16.308;2023-01-24T07:34:52;5.60;77.90
17827;DHT22;9038;48.208;16.308;2023-01-24T07:36:58;5.60;77.80
17827;DHT22;9038;48.208;16.308;2023-01-24T07:39:00;5.60;77.80
17827;DHT22;9038;48.208;16.308;2023-01-24T07:41:06;5.60;77.60
17827;DHT22;9038;48.208;16.308;2023-01-24T07:43:08;5.60;77.80
17827;DHT22;9038;48.208;16.308;2023-01-24T07:45:10;5.60;77.70
17827;DHT22;9038;48.208;16.308;2023-01-24T07:47:13;5.50;77.70
17827;DHT22;9038;48.208;16.308;2023-01-24T07:49:15;5.50;78.20
17827;DHT22;9038;48.208;16.308;2023-01-24T07:51:17;5.60;77.90
17827;DHT22;9038;48.208;16.308;2023-01-24T07:53:21;5.60;77.80
17827;DHT22;9038;48.208;16.308;2023-01-24T07:55:23;5.60;77.60
17827;DHT22;9038;48.208;16.308;2023-01-24T07:57:25;5.60;77.50
17827;DHT22;9038;48.208;16.308;2023-01-24T07:59:27;5.60;77.50
17827;DHT22;9038;48.208;16.308;2023-01-24T08:01:29;5.60;77.40
17827;DHT22;9038;48.208;16.308;2023-01-24T08:03:31;5.70;77.50
17827;DHT22;9038;48.208;16.308;2023-01-24T08:05:36;5.70;77.50
17827;DHT22;9038;48.208;16.308;2023-01-24T08:07:38;5.80;77.50
17827;DHT22;9038;48.208;16.308;2023-01-24T08:09:41;5.80;77.30
17827;DHT22;9038;48.208;16.308;2023-01-24T08:11:43;5.80;77.10
17827;DHT22;9038;48.208;16.308;2023-01-24T08:13:45;5.80;77.10
17827;DHT22;9038;48.208;16.308;2023-01-24T08:15:47;5.80;77.30
17827;DHT22;9038;48.208;16.308;2023-01-24T08:17:49;5.90;77.00
17827;DHT22;9038;48.208;16.308;2023-01-24T08:19:51;5.90;77.00
17827;DHT22;9038;48.208;16.308;2023-01-24T08:21:53;5.90;76.90
17827;DHT22;9038;48.208;16.308;2023-01-24T08:23:55;5.90;76.80
17827;DHT22;9038;48.208;16.308;2023-01-24T08:25:59;6.00;76.90
17827;DHT22;9038;48.208;16.308;2023-01-24T08:28:02;6.10;76.50
17827;DHT22;9038;48.208;16.308;2023-01-24T08:30:05;6.10;76.30
17827;DHT22;9038;48.208;16.308;2023-01-24T08:32:08;6.00;76.00
17827;DHT22;9038;48.208;16.308;2023-01-24T08:34:10;6.00;76.30
17827;DHT22;9038;48.208;16.308;2023-01-24T08:36:12;6.00;75.90
17827;DHT22;9038;48.208;16.308;2023-01-24T08:38:15;5.90;76.40
17827;DHT22;9038;48.208;16.308;2023-01-24T08:40:17;5.90;77.10
17827;DHT22;9038;48.208;16.308;2023-01-24T08:42:20;5.90;76.80
17827;DHT22;9038;48.208;16.308;2023-01-24T08:44:22;5.90;76.70
17827;DHT22;9038;48.208;16.308;2023-01-24T08:46:25;5.90;76.90
17827;DHT22;9038;48.208;16.308;2023-01-24T08:48:28;5.90;76.80
17827;DHT22;9038;48.208;16.308;2023-01-24T08:50:30;5.90;76.90
17827;DHT22;9038;48.208;16.308;2023-01-24T08:52:32;5.90;76.80
17827;DHT22;9038;48.208;16.308;2023-01-24T08:54:34;5.90;76.50
17827;DHT22;9038;48.208;16.308;2023-01-24T08:56:36;5.90;76.50
17827;DHT22;9038;48.208;16.308;2023-01-24T08:58:40;6.00;76.50
17827;DHT22;9038;48.208;16.308;2023-01-24T09:00:42;6.00;76.20
17827;DHT22;9038;48.208;16.308;2023-01-24T09:02:44;6.10;76.30
17827;DHT22;9038;48.208;16.308;2023-01-24T09:04:45;6.20;76.10
17827;DHT22;9038;48.208;16.308;2023-01-24T09:06:47;6.20;76.10
17827;DHT22;9038;48.208;16.308;2023-01-24T09:08:53;6.20;76.10
17827;DHT22;9038;48.208;16.308;2023-01-24T09:10:57;6.10;76.00
17827;DHT22;9038;48.208;16.308;2023-01-24T09:13:00;6.20;76.30
17827;DHT22;9038;48.208;16.308;2023-01-24T09:15:04;6.20;76.10
17827;DHT22;9038;48.208;16.308;2023-01-24T09:17:06;6.30;76.00
17827;DHT22;9038;48.208;16.308;2023-01-24T09:19:09;6.30;75.60
17827;DHT22;9038;48.208;16.308;2023-01-24T09:21:12;6.40;75.70
17827;DHT22;9038;48.208;16.308;2023-01-24T09:23:14;6.40;75.50
17827;DHT22;9038;48.208;16.308;2023-01-24T09:25:16;6.40;75.70
17827;DHT22;9038;48.208;16.308;2023-01-24T09:27:18;6.40;75.30
17827;DHT22;9038;48.208;16.308;2023-01-24T09:29:20;6.30;75.40
17827;DHT22;9038;48.208;16.308;2023-01-24T09:31:24;6.20;75.50
17827;DHT22;9038;48.208;16.308;2023-01-24T09:33:25;6.20;75.80
17827;DHT22;9038;48.208;16.308;2023-01-24T09:35:27;6.20;75.70
17827;DHT22;9038;48.208;16.308;2023-01-24T09:37:29;6.20;76.10
17827;DHT22;9038;48.208;16.308;2023-01-24T09:39:31;6.20;76.10
17827;DHT22;9038;48.208;16.308;2023-01-24T09:41:47;6.20;76.10
17827;DHT22;9038;48.208;16.308;2023-01-24T09:43:51;6.20;75.40
17827;DHT22;9038;48.208;16.308;2023-01-24T09:45:57;6.10;75.80
17827;DHT22;9038;48.208;16.308;2023-01-24T09:48:11;6.10;76.00
17827;DHT22;9038;48.208;16.308;2023-01-24T09:50:16;6.10;75.90
17827;DHT22;9038;48.208;16.308;2023-01-24T09:52:27;6.10;76.00
17827;DHT22;9038;48.208;16.308;2023-01-24T09:54:34;6.20;75.80
17827;DHT22;9038;48.208;16.308;2023-01-24T09:56:40;6.10;76.00
17827;DHT22;9038;48.208;16.308;2023-01-24T09:58:43;6.20;76.10
17827;DHT22;9038;48.208;16.308;2023-01-24T10:00:45;6.30;75.70
17827;DHT22;9038;48.208;16.308;2023-01-24T10:02:47;6.20;75.00
17827;DHT22;9038;48.208;16.308;2023-01-24T10:04:51;6.20;75.20
17827;DHT22;9038;48.208;16.308;2023-01-24T10:07:09;6.20;75.40
17827;DHT22;9038;48.208;16.308;2023-01-24T10:09:20;6.20;75.70
17827;DHT22;9038;48.208;16.308;2023-01-24T10:11:32;6.20;75.30
17827;DHT22;9038;48.208;16.308;2023-01-24T10:14:08;6.20;75.20
17827;DHT22;9038;48.208;16.308;2023-01-24T10:16:22;6.30;75.30
17827;DHT22;9038;48.208;16.308;2023-01-24T10:18:43;6.30;75.30
17827;DHT22;9038;48.208;16.308;2023-01-24T10:21:02;6.40;75.30
17827;DHT22;9038;48.208;16.308;2023-01-24T10:23:12;6.40;75.10
17827;DHT22;9038;48.208;16.308;2023-01-24T10:25:18;6.40;74.60
17827;DHT22;9038;48.208;16.308;2023-01-24T10:27:27;6.40;74.80
17827;DHT22;9038;48.208;16.308;2023-01-24T10:29:31;6.40;74.50
17827;DHT22;9038;48.208;16.308;2023-01-24T10:31:40;6.40;74.90
17827;DHT22;9038;48.208;16.308;2023-01-24T10:33:45;6.40;74.80
17827;DHT22;9038;48.208;16.308;2023-01-24T10:35:55;6.40;74.60
17827;DHT22;9038;48.208;16.308;2023-01-24T10:38:04;6.30;74.50
17827;DHT22;9038;48.208;16.308;2023-01-24T10:40:11;6.30;74.70
17827;DHT22;9038;48.208;16.308;2023-01-24T10:42:20;6.30;74.50
17827;DHT22;9038;48.208;16.308;2023-01-24T10:44:25;6.30;74.60
17827;DHT22;9038;48.208;16.308;2023-01-24T10:46:49;6.40;74.80
17827;DHT22;9038;48.208;16.308;2023-01-24T10:48:55;6.40;74.60
17827;DHT22;9038;48.208;16.308;2023-01-24T10:51:10;6.40;74.30
17827;DHT22;9038;48.208;16.308;2023-01-24T10:53:20;6.40;74.50
17827;DHT22;9038;48.208;16.308;2023-01-24T10:55:29;6.40;74.80
17827;DHT22;9038;48.208;16.308;2023-01-24T10:57:40;6.50;74.70
17827;DHT22;9038;48.208;16.308;2023-01-24T10:59:43;6.40;74.30
17827;DHT22;9038;48.208;16.308;2023-01-24T11:01:46;6.40;74.30
17827;DHT22;9038;48.208;16.308;2023-01-24T11:03:50;6.40;74.50
17827;DHT22;9038;48.208;16.308;2023-01-24T11:05:54;6.50;74.50
17827;DHT22;9038;48.208;16.308;2023-01-24T11:07:59;6.40;74.30
17827;DHT22;9038;48.208;16.308;2023-01-24T11:10:09;6.50;74.50
17827;DHT22;9038;48.208;16.308;2023-01-24T11:12:17;6.50;74.40
17827;DHT22;9038;48.208;16.308;2023-01-24T11:14:23;6.50;74.40
17827;DHT22;9038;48.208;16.308;2023-01-24T11:16:30;6.50;73.80
17827;DHT22;9038;48.208;16.308;2023-01-24T11:18:33;6.50;74.00
17827;DHT22;9038;48.208;16.308;2023-01-24T11:20:36;6.50;74.10
17827;DHT22;9038;48.208;16.308;2023-01-24T11:22:38;6.50;74.10
17827;DHT22;9038;48.208;16.308;2023-01-24T11:24:43;6.50;74.20
17827;DHT22;9038;48.208;16.308;2023-01-24T11:27:01;6.40;73.80
17827;DHT22;9038;48.208;16.308;2023-01-24T11:29:09;6.40;74.10
17827;DHT22;9038;48.208;16.308;2023-01-24T11:31:22;6.40;73.80
17827;DHT22;9038;48.208;16.308;2023-01-24T11:33:51;6.30;74.00
17827;DHT22;9038;48.208;16.308;2023-01-24T11:36:02;6.30;74.10
17827;DHT22;9038;48.208;16.308;2023-01-24T11:38:21;6.30;74.20
17827;DHT22;9038;48.208;16.308;2023-01-24T11:40:34;6.30;74.50
17827;DHT22;9038;48.208;16.308;2023-01-24T11:42:45;6.30;74.20
17827;DHT22;9038;48.208;16.308;2023-01-24T11:45:14;6.30;74.20
17827;DHT22;9038;48.208;16.308;2023-01-24T11:47:24;6.30;74.20
17827;DHT22;9038;48.208;16.308;2023-01-24T11:49:43;6.20;74.10
17827;DHT22;9038;48.208;16.308;2023-01-24T11:51:56;6.30;74.20
17827;DHT22;9038;48.208;16.308;2023-01-24T11:54:14;6.20;74.20
17827;DHT22;9038;48.208;16.308;2023-01-24T11:56:27;6.30;74.30
17827;DHT22;9038;48.208;16.308;2023-01-24T11:58:44;6.30;74.30
17827;DHT22;9038;48.208;16.308;2023-01-24T12:00:54;6.40;74.30
17827;DHT22;9038;48.208;16.308;2023-01-24T12:03:14;6.40;74.00
17827;DHT22;9038;48.208;16.308;2023-01-24T12:05:31;6.40;73.80
17827;DHT22;9038;48.208;16.308;2023-01-24T12:07:45;6.40;73.30
17827;DHT22;9038;48.208;16.308;2023-01-24T12:09:58;6.30;74.00
17827;DHT22;9038;48.208;16.308;2023-01-24T12:12:07;6.20;73.60
17827;DHT22;9038;48.208;16.308;2023-01-24T12:14:40;6.20;73.60
17827;DHT22;9038;48.208;16.308;2023-01-24T12:16:56;6.20;73.80
17827;DHT22;9038;48.208;16.308;2023-01-24T12:19:18;6.20;73.60
17827;DHT22;9038;48.208;16.308;2023-01-24T12:21:23;6.10;73.80
17827;DHT22;9038;48.208;16.308;2023-01-24T12:23:31;6.20;74.10
17827;DHT22;9038;48.208;16.308;2023-01-24T12:25:36;6.20;74.20
17827;DHT22;9038;48.208;16.308;2023-01-24T12:27:41;6.20;74.10
17827;DHT22;9038;48.208;16.308;2023-01-24T12:29:50;6.20;74.10
17827;DHT22;9038;48.208;16.308;2023-01-24T12:32:00;6.20;73.80
17827;DHT22;9038;48.208;16.308;2023-01-24T12:34:09;6.20;73.50
17827;DHT22;9038;48.208;16.308;2023-01-24T12:36:18;6.20;74.00
17827;DHT22;9038;48.208;16.308;2023-01-24T12:38:31;6.20;73.90
17827;DHT22;9038;48.208;16.308;2023-01-24T12:40:43;6.30;73.60
17827;DHT22;9038;48.208;16.308;2023-01-24T12:42:52;6.20;73.60
17827;DHT22;9038;48.208;16.308;2023-01-24T12:45:02;6.30;73.70
17827;DHT22;9038;48.208;16.308;2023-01-24T12:47:28;6.30;73.60
17827;DHT22;9038;48.208;16.308;2023-01-24T12:49:38;6.40;73.30
17827;DHT22;9038;48.208;16.308;2023-01-24T12:51:47;6.30;73.20
17827;DHT22;9038;48.208;16.308;2023-01-24T12:53:59;6.40;73.50
17827;DHT22;9038;48.208;16.308;2023-01-24T12:56:11;6.50;73.40
17827;DHT22;9038;48.208;16.308;2023-01-24T12:58:18;6.60;73.50
17827;DHT22;9038;48.208;16.308;2023-01-24T13:00:23;6.60;72.90
17827;DHT22;9038;48.208;16.308;2023-01-24T13:02:49;6.60;72.50
17827;DHT22;9038;48.208;16.308;2023-01-24T13:05:05;6.60;72.20
17827;DHT22;9038;48.208;16.308;2023-01-24T13:07:20;6.50;72.50
17827;DHT22;9038;48.208;16.308;2023-01-24T13:09:29;6.50;72.10
17827;DHT22;9038;48.208;16.308;2023-01-24T13:11:37;6.50;72.20
17827;DHT22;9038;48.208;16.308;2023-01-24T13:13:45;6.50;72.50
17827;DHT22;9038;48.208;16.308;2023-01-24T13:15:58;6.50;72.40
17827;DHT22;9038;48.208;16.308;2023-01-24T13:18:25;6.50;72.30
17827;DHT22;9038;48.208;16.308;2023-01-24T13:20:59;6.60;72.20
17827;DHT22;9038;48.208;16.308;2023-01-24T13:23:17;6.60;72.40
17827;DHT22;9038;48.208;16.308;2023-01-24T13:27:48;6.50;71.70
17827;DHT22;9038;48.208;16.308;2023-01-24T13:30:05;6.50;72.10